createdAt,value
2022-09-01T00:00:36.215Z,94.57
2022-09-01T00:01:36.164Z,94.87
2022-09-01T00:02:37.119Z,95.07
2022-09-01T00:03:36.141Z,95.18
2022-09-01T00:04:36.218Z,94.67
2022-09-01T00:05:36.121Z,94.67
2022-09-01T00:06:36.198Z,94.77
2022-09-01T00:07:36.096Z,94.98
2022-09-01T00:08:36.076Z,94.87
2022-09-01T00:09:36.094Z,94.46
2022-09-01T00:10:36.059Z,94.46
2022-09-01T00:11:36.063Z,94.87
2022-09-01T00:12:36.088Z,95.38
2022-09-01T00:13:36.054Z,95.58
2022-09-01T00:14:38.534Z,95.38
2022-09-01T00:15:37.101Z,95.89
2022-09-01T00:16:35.990Z,95.99
2022-09-01T00:17:36.019Z,95.68
2022-09-01T00:18:36.009Z,95.68
2022-09-01T00:19:35.960Z,95.79
2022-09-01T00:20:35.962Z,95.58
2022-09-01T00:21:35.960Z,95.58
2022-09-01T00:22:35.932Z,95.58
2022-09-01T00:23:35.950Z,95.48
2022-09-01T00:24:35.923Z,95.38
2022-09-01T00:25:35.893Z,95.28
2022-09-01T00:26:35.892Z,94.98
2022-09-01T00:27:35.902Z,94.82
2022-09-01T00:28:35.894Z,94.77
2022-09-01T00:29:35.891Z,94.87
2022-09-01T00:30:35.913Z,94.92
2022-09-01T00:31:35.871Z,94.92
2022-09-01T00:32:35.865Z,95.02
2022-09-01T00:33:36.104Z,94.92
2022-09-01T00:34:36.174Z,95.02
2022-09-01T00:35:37.227Z,94.71
2022-09-01T00:36:35.804Z,94.82
2022-09-01T00:37:35.772Z,95.02
2022-09-01T00:38:35.765Z,95.12
2022-09-01T00:39:35.745Z,95.12
2022-09-01T00:40:35.881Z,95.12
2022-09-01T00:41:35.758Z,94.92
2022-09-01T00:42:35.735Z,95.02
2022-09-01T00:43:35.709Z,95.22
2022-09-01T00:44:35.696Z,95.42
2022-09-01T00:45:35.714Z,95.53
2022-09-01T00:46:37.013Z,95.53
2022-09-01T00:47:36.678Z,95.53
2022-09-01T00:48:35.676Z,95.63
2022-09-01T00:49:35.655Z,95.22
2022-09-01T00:50:35.687Z,94.92
2022-09-01T00:51:35.632Z,95.12
2022-09-01T00:52:35.645Z,95.22
2022-09-01T00:53:35.670Z,94.92
2022-09-01T00:54:35.626Z,95.22
2022-09-01T00:55:35.600Z,95.53
2022-09-01T00:56:35.666Z,95.22
2022-09-01T00:57:35.588Z,94.82
2022-09-01T00:58:35.561Z,94.82
2022-09-01T00:59:35.541Z,94.35
2022-09-01T01:00:35.553Z,94.66
2022-09-01T01:01:35.643Z,95.17
2022-09-01T01:02:35.558Z,95.17
2022-09-01T01:03:35.505Z,95.06
2022-09-01T01:04:35.497Z,95.26
2022-09-01T01:05:35.464Z,95.67
2022-09-01T01:06:35.499Z,95.98
2022-09-01T01:07:35.474Z,95.98
2022-09-01T01:08:35.453Z,95.98
2022-09-01T01:09:35.435Z,95.57
2022-09-01T01:10:35.453Z,95.47
2022-09-01T01:11:35.404Z,95.37
2022-09-01T01:12:35.394Z,95.57
2022-09-01T01:13:35.406Z,95.57
2022-09-01T01:14:35.396Z,95.37
2022-09-01T01:15:35.441Z,95.67
2022-09-01T01:16:35.419Z,95.37
2022-09-01T01:17:35.389Z,94.45
2022-09-01T01:18:35.430Z,94.05
2022-09-01T01:19:38.867Z,94.56
2022-09-01T01:20:35.371Z,95.17
2022-09-01T01:21:35.338Z,95.57
2022-09-01T01:22:35.388Z,95.57
2022-09-01T01:23:35.660Z,95.51
2022-09-01T01:24:35.312Z,95.37
2022-09-01T01:25:35.326Z,95.37
2022-09-01T01:26:35.323Z,95.57
2022-09-01T01:27:39.957Z,95.67
2022-09-01T01:28:36.227Z,95.47
2022-09-01T01:29:35.237Z,95.47
2022-09-01T01:30:35.338Z,95.47
2022-09-01T01:31:35.233Z,95.37
2022-09-01T01:32:35.178Z,95.01
2022-09-01T01:33:35.173Z,94.20
2022-09-01T01:34:35.952Z,93.99
2022-09-01T01:35:35.139Z,94.50
2022-09-01T01:36:35.218Z,95.01
2022-09-01T01:37:35.121Z,95.31
2022-09-01T01:38:35.113Z,95.41
2022-09-01T01:39:35.121Z,95.82
2022-09-01T01:40:35.133Z,95.82
2022-09-01T01:41:35.089Z,95.92
2022-09-01T01:42:35.392Z,95.72
2022-09-01T01:43:35.050Z,95.51
2022-09-01T01:44:35.044Z,95.62
2022-09-01T01:45:35.041Z,95.62
2022-09-01T01:46:35.013Z,95.72
2022-09-01T01:47:35.052Z,95.92
2022-09-01T01:48:35.026Z,95.82
2022-09-01T01:49:35.005Z,95.62
2022-09-01T01:50:34.985Z,95.41
2022-09-01T01:51:34.962Z,95.51
2022-09-01T01:52:35.006Z,95.41
2022-09-01T01:53:34.943Z,95.41
2022-09-01T01:54:34.955Z,95.51
2022-09-01T01:55:34.918Z,95.41
2022-09-01T01:56:34.914Z,95.21
2022-09-01T01:57:34.944Z,95.10
2022-09-01T01:58:34.910Z,95.41
2022-09-01T01:59:34.878Z,95.51
2022-09-01T02:00:34.877Z,95.41
2022-09-01T02:01:35.277Z,95.21
2022-09-01T02:02:35.014Z,95.41
2022-09-01T02:03:34.838Z,95.51
2022-09-01T02:04:34.844Z,95.51
2022-09-01T02:05:34.885Z,95.15
2022-09-01T02:06:34.810Z,94.74
2022-09-01T02:07:34.847Z,94.74
2022-09-01T02:08:34.788Z,94.85
2022-09-01T02:09:34.809Z,95.15
2022-09-01T02:10:34.781Z,95.56
2022-09-01T02:11:34.789Z,95.76
2022-09-01T02:12:34.762Z,95.66
2022-09-01T02:13:34.732Z,95.66
2022-09-01T02:14:34.763Z,95.86
2022-09-01T02:15:34.713Z,95.76
2022-09-01T02:16:34.772Z,95.56
2022-09-01T02:17:34.686Z,95.46
2022-09-01T02:18:34.684Z,95.36
2022-09-01T02:19:34.691Z,95.46
2022-09-01T02:20:34.660Z,95.76
2022-09-01T02:21:34.677Z,96.07
2022-09-01T02:22:34.798Z,96.27
2022-09-01T02:23:34.624Z,96.27
2022-09-01T02:24:34.617Z,95.97
2022-09-01T02:25:34.631Z,96.07
2022-09-01T02:26:34.580Z,95.86
2022-09-01T02:27:34.602Z,95.97
2022-09-01T02:28:34.593Z,95.66
2022-09-01T02:29:40.147Z,95.56
2022-09-01T02:30:35.603Z,95.76
2022-09-01T02:31:34.566Z,95.86
2022-09-01T02:32:34.605Z,95.97
2022-09-01T02:33:34.526Z,95.97
2022-09-01T02:34:34.573Z,95.97
2022-09-01T02:35:34.915Z,95.56
2022-09-01T02:36:34.509Z,95.15
2022-09-01T02:37:34.469Z,95.36
2022-09-01T02:38:34.483Z,95.66
2022-09-01T02:39:34.433Z,95.97
2022-09-01T02:40:34.530Z,95.86
2022-09-01T02:41:34.456Z,95.76
2022-09-01T02:42:34.403Z,95.97
2022-09-01T02:43:34.406Z,95.97
2022-09-01T02:44:39.498Z,95.66
2022-09-01T02:45:35.447Z,95.76
2022-09-01T02:46:34.776Z,95.86
2022-09-01T02:47:34.746Z,95.76
2022-09-01T02:48:34.376Z,95.56
2022-09-01T02:49:34.358Z,95.56
2022-09-01T02:50:34.317Z,95.56
2022-09-01T02:51:34.351Z,95.46
2022-09-01T02:52:34.344Z,95.25
2022-09-01T02:53:34.329Z,95.46
2022-09-01T02:54:34.303Z,95.56
2022-09-01T02:55:34.279Z,95.97
2022-09-01T02:56:34.264Z,95.66
2022-09-01T02:57:34.242Z,95.56
2022-09-01T02:58:34.370Z,95.86
2022-09-01T02:59:34.240Z,95.97
2022-09-01T03:00:34.591Z,95.46
2022-09-01T03:01:34.294Z,95.09
2022-09-01T03:02:34.351Z,95.09
2022-09-01T03:03:34.184Z,94.69
2022-09-01T03:04:34.274Z,94.79
2022-09-01T03:05:34.163Z,95.20
2022-09-01T03:06:34.519Z,95.30
2022-09-01T03:07:34.163Z,95.40
2022-09-01T03:08:34.954Z,95.50
2022-09-01T03:09:34.123Z,95.70
2022-09-01T03:10:34.158Z,95.81
2022-09-01T03:11:34.114Z,95.40
2022-09-01T03:12:34.097Z,95.50
2022-09-01T03:13:34.082Z,95.81
2022-09-01T03:14:34.075Z,96.01
2022-09-01T03:15:34.086Z,96.11
2022-09-01T03:16:34.110Z,96.11
2022-09-01T03:17:34.035Z,96.22
2022-09-01T03:18:34.077Z,95.91
2022-09-01T03:19:34.046Z,95.81
2022-09-01T03:20:34.035Z,95.61
2022-09-01T03:21:34.007Z,95.70
2022-09-01T03:22:34.127Z,95.91
2022-09-01T03:23:33.994Z,95.81
2022-09-01T03:24:33.955Z,95.61
2022-09-01T03:25:34.977Z,95.70
2022-09-01T03:26:33.947Z,95.70
2022-09-01T03:27:33.949Z,95.50
2022-09-01T03:28:33.940Z,95.30
2022-09-01T03:29:33.919Z,95.40
2022-09-01T03:30:33.907Z,95.70
2022-09-01T03:31:33.929Z,95.50
2022-09-01T03:32:33.867Z,95.70
2022-09-01T03:33:33.877Z,96.11
2022-09-01T03:34:34.108Z,96.01
2022-09-01T03:35:33.838Z,96.22
2022-09-01T03:36:33.862Z,96.11
2022-09-01T03:37:33.889Z,96.31
2022-09-01T03:38:33.833Z,96.52
2022-09-01T03:39:33.810Z,96.62
2022-09-01T03:40:33.873Z,96.11
2022-09-01T03:41:33.832Z,95.81
2022-09-01T03:42:33.773Z,95.30
2022-09-01T03:43:36.067Z,95.30
2022-09-01T03:44:34.323Z,95.50
2022-09-01T03:45:33.761Z,95.70
2022-09-01T03:46:37.093Z,96.01
2022-09-01T03:47:33.751Z,96.01
2022-09-01T03:48:33.735Z,96.01
2022-09-01T03:49:33.693Z,96.22
2022-09-01T03:50:33.803Z,96.31
2022-09-01T03:51:33.682Z,96.62
2022-09-01T03:52:33.761Z,96.92
2022-09-01T03:53:33.648Z,97.64
2022-09-01T03:54:33.646Z,98.14
2022-09-01T03:55:33.624Z,98.45
2022-09-01T03:56:33.619Z,98.55
2022-09-01T03:57:33.642Z,98.45
2022-09-01T03:58:33.596Z,98.14
2022-09-01T03:59:33.556Z,98.05
2022-09-01T04:00:33.582Z,97.84
2022-09-01T04:01:33.668Z,97.33
2022-09-01T04:02:33.575Z,96.97
2022-09-01T04:03:33.514Z,97.07
2022-09-01T04:04:33.531Z,96.87
2022-09-01T04:05:33.504Z,96.36
2022-09-01T04:06:33.498Z,96.36
2022-09-01T04:07:33.614Z,96.26
2022-09-01T04:08:33.499Z,96.15
2022-09-01T04:09:33.468Z,96.46
2022-09-01T04:10:33.450Z,96.46
2022-09-01T04:11:33.469Z,96.26
2022-09-01T04:12:33.487Z,96.06
2022-09-01T04:13:33.439Z,95.75
2022-09-01T04:14:33.440Z,96.06
2022-09-01T04:15:33.420Z,96.26
2022-09-01T04:16:33.458Z,96.26
2022-09-01T04:17:33.378Z,96.56
2022-09-01T04:18:33.382Z,96.87
2022-09-01T04:19:33.375Z,96.83
2022-09-01T04:20:33.351Z,96.92
2022-09-01T04:21:33.330Z,97.07
2022-09-01T04:22:33.432Z,97.13
2022-09-01T04:23:33.309Z,97.33
2022-09-01T04:24:33.292Z,97.44
2022-09-01T04:25:33.274Z,97.84
2022-09-01T04:26:33.281Z,98.05
2022-09-01T04:27:33.292Z,98.14
2022-09-01T04:28:33.318Z,98.25
2022-09-01T04:29:33.241Z,98.45
2022-09-01T04:30:33.255Z,98.14
2022-09-01T04:31:33.307Z,98.05
2022-09-01T04:32:33.237Z,98.14
2022-09-01T04:33:33.227Z,98.30
2022-09-01T04:34:33.212Z,98.61
2022-09-01T04:35:37.988Z,98.81
2022-09-01T04:36:34.237Z,99.02
2022-09-01T04:37:33.145Z,99.11
2022-09-01T04:38:33.207Z,99.32
2022-09-01T04:39:33.135Z,99.42
2022-09-01T04:40:33.258Z,99.52
2022-09-01T04:41:33.107Z,99.48
2022-09-01T04:42:33.129Z,99.48
2022-09-01T04:43:33.621Z,99.22
2022-09-01T04:44:33.101Z,99.07
2022-09-01T04:45:33.185Z,99.27
2022-09-01T04:46:33.117Z,99.27
2022-09-01T04:47:36.228Z,99.48
2022-09-01T04:48:33.562Z,99.58
2022-09-01T04:49:33.046Z,99.17
2022-09-01T04:50:34.030Z,98.97
2022-09-01T04:51:33.038Z,98.36
2022-09-01T04:52:33.024Z,97.75
2022-09-01T04:53:34.005Z,97.55
2022-09-01T04:54:33.000Z,97.55
2022-09-01T04:55:33.036Z,97.44
2022-09-01T04:56:33.001Z,97.44
2022-09-01T04:57:32.971Z,97.55
2022-09-01T04:58:32.986Z,97.75
2022-09-01T04:59:33.768Z,97.85
2022-09-01T05:00:33.012Z,97.96
2022-09-01T05:01:32.961Z,98.00
2022-09-01T05:02:32.990Z,98.10
2022-09-01T05:03:32.927Z,98.16
2022-09-01T05:04:33.287Z,98.66
2022-09-01T05:05:32.875Z,98.56
2022-09-01T05:06:32.897Z,98.56
2022-09-01T05:07:32.950Z,98.66
2022-09-01T05:08:32.921Z,98.77
2022-09-01T05:09:32.807Z,99.07
2022-09-01T05:10:32.819Z,99.07
2022-09-01T05:11:32.810Z,98.97
2022-09-01T05:12:32.907Z,98.97
2022-09-01T05:13:32.806Z,99.07
2022-09-01T05:14:32.795Z,99.17
2022-09-01T05:15:32.755Z,99.27
2022-09-01T05:16:32.763Z,99.38
2022-09-01T05:17:32.767Z,99.48
2022-09-01T05:18:32.752Z,99.48
2022-09-01T05:19:32.707Z,99.48
2022-09-01T05:20:32.695Z,99.48
2022-09-01T05:21:32.675Z,99.48
2022-09-01T05:22:32.676Z,99.17
2022-09-01T05:23:32.706Z,99.07
2022-09-01T05:24:32.645Z,99.17
2022-09-01T05:25:32.627Z,99.38
2022-09-01T05:26:32.645Z,99.07
2022-09-01T05:27:32.640Z,98.46
2022-09-01T05:28:32.637Z,98.86
2022-09-01T05:29:32.615Z,99.27
2022-09-01T05:30:32.596Z,99.07
2022-09-01T05:31:32.623Z,99.48
2022-09-01T05:32:32.568Z,99.48
2022-09-01T05:33:32.658Z,98.97
2022-09-01T05:34:32.551Z,98.26
2022-09-01T05:35:33.197Z,98.16
2022-09-01T05:36:32.529Z,98.66
2022-09-01T05:37:32.518Z,99.17
2022-09-01T05:38:32.499Z,99.53
2022-09-01T05:39:32.526Z,99.84
2022-09-01T05:40:32.562Z,99.99
2022-09-01T05:41:32.473Z,99.99
2022-09-01T05:42:32.461Z,99.99
2022-09-01T05:43:32.446Z,99.99
2022-09-01T05:44:32.473Z,99.99
2022-09-01T05:45:44.930Z,99.99
2022-09-01T05:46:33.439Z,99.99
2022-09-01T05:47:32.415Z,99.99
2022-09-01T05:48:32.406Z,99.99
2022-09-01T05:49:32.449Z,99.99
2022-09-01T05:50:32.361Z,99.99
2022-09-01T05:51:50.749Z,99.99
2022-09-01T05:52:33.382Z,99.99
2022-09-01T05:53:32.324Z,99.99
2022-09-01T05:54:32.322Z,99.99
2022-09-01T05:55:32.302Z,99.99
2022-09-01T05:56:32.355Z,99.99
2022-09-01T05:57:34.832Z,99.99
2022-09-01T05:59:33.593Z,98.77
2022-09-01T06:00:32.276Z,97.50
2022-09-01T06:01:32.277Z,97.09
2022-09-01T06:02:32.381Z,97.09
2022-09-01T06:03:32.251Z,96.79
2022-09-01T06:04:33.257Z,96.95
2022-09-01T06:05:33.039Z,96.34
2022-09-01T06:06:43.900Z,96.54
2022-09-01T06:07:33.176Z,97.86
2022-09-01T06:08:32.181Z,97.76
2022-09-01T06:09:32.208Z,97.25
2022-09-01T06:10:32.136Z,96.54
2022-09-01T06:11:32.150Z,96.34
2022-09-01T06:12:32.128Z,96.80
2022-09-01T06:13:32.136Z,96.90
2022-09-01T06:14:32.171Z,98.58
2022-09-01T06:15:32.095Z,99.19
2022-09-01T06:16:32.248Z,98.28
2022-09-01T06:17:35.888Z,97.47
2022-09-01T06:18:32.067Z,97.06
2022-09-01T06:19:36.729Z,96.75
2022-09-01T06:20:33.044Z,96.45
2022-09-01T06:21:32.055Z,96.45
2022-09-01T06:22:32.028Z,96.45
2022-09-01T06:23:32.023Z,96.45
2022-09-01T06:24:32.033Z,96.51
2022-09-01T06:25:32.040Z,96.51
2022-09-01T06:26:31.994Z,97.02
2022-09-01T06:27:31.961Z,97.72
2022-09-01T06:28:31.969Z,97.88
2022-09-01T06:29:31.942Z,97.17
2022-09-01T06:30:31.992Z,96.66
2022-09-01T06:31:31.993Z,96.06
2022-09-01T06:32:31.909Z,96.26
2022-09-01T06:33:31.902Z,96.36
2022-09-01T06:34:31.909Z,96.46
2022-09-01T06:35:32.091Z,96.66
2022-09-01T06:36:34.931Z,96.77
2022-09-01T06:37:32.678Z,96.87
2022-09-01T06:38:31.848Z,96.66
2022-09-01T06:39:31.837Z,96.36
2022-09-01T06:40:31.900Z,96.97
2022-09-01T06:41:31.876Z,96.97
2022-09-01T06:42:31.908Z,96.31
2022-09-01T06:43:31.775Z,95.35
2022-09-01T06:44:31.788Z,94.09
2022-09-01T06:45:31.775Z,93.68
2022-09-01T06:46:31.940Z,94.09
2022-09-01T06:47:31.754Z,94.09
2022-09-01T06:48:31.755Z,93.78
2022-09-01T06:49:31.757Z,93.78
2022-09-01T06:51:32.758Z,93.07
2022-09-01T06:53:32.050Z,93.18
2022-09-01T06:53:34.527Z,93.58
2022-09-01T06:54:31.682Z,93.94
2022-09-01T06:55:31.663Z,93.84
2022-09-01T06:56:32.018Z,93.63
2022-09-01T06:58:32.630Z,93.63
2022-09-01T06:59:34.752Z,93.13
2022-09-01T07:00:31.610Z,93.43
2022-09-01T07:01:31.779Z,93.33
2022-09-01T07:02:33.722Z,92.02
2022-09-01T07:03:31.584Z,92.12
2022-09-01T07:04:31.599Z,92.52
2022-09-01T07:08:32.530Z,91.00
2022-09-01T07:09:48.027Z,91.61
2022-09-01T07:10:32.527Z,92.32
2022-09-01T07:12:32.605Z,91.82
2022-09-01T07:13:31.469Z,91.31
2022-09-01T07:14:31.453Z,92.42
2022-09-01T07:16:32.150Z,91.27
2022-09-01T07:17:32.432Z,91.27
2022-09-01T07:18:31.476Z,91.27
2022-09-01T07:20:32.410Z,91.16
2022-09-01T07:21:41.665Z,90.96
2022-09-01T07:22:36.093Z,91.06
2022-09-01T07:23:46.298Z,90.36
2022-09-01T07:24:32.351Z,90.96
2022-09-01T07:25:35.753Z,90.86
2022-09-01T07:26:32.329Z,90.66
2022-09-01T07:27:35.957Z,90.36
2022-09-01T07:28:39.413Z,89.54
2022-09-01T07:29:32.370Z,90.05
2022-09-01T07:30:31.280Z,90.25
2022-09-01T07:32:47.960Z,90.21
2022-09-01T07:33:53.923Z,90.56
2022-09-01T07:34:39.984Z,88.39
2022-09-01T07:35:32.260Z,89.00
2022-09-01T07:36:31.211Z,89.30
2022-09-01T07:38:49.613Z,89.00
2022-09-01T07:39:48.710Z,89.40
2022-09-01T07:43:33.473Z,90.01
2022-09-01T07:44:31.130Z,89.40
2022-09-01T07:45:31.153Z,89.70
2022-09-01T07:46:38.713Z,89.81
2022-09-01T07:49:52.396Z,90.82
2022-09-01T07:51:35.033Z,89.50
2022-09-01T07:51:36.876Z,89.91
2022-09-01T07:52:32.063Z,89.91
2022-09-01T07:53:31.033Z,89.50
2022-09-01T07:54:31.023Z,89.81
2022-09-01T07:55:31.013Z,89.70
2022-09-01T07:56:31.034Z,88.09
2022-09-01T07:57:30.973Z,88.59
2022-09-01T07:58:30.991Z,88.75
2022-09-01T07:59:30.956Z,88.55
2022-09-01T08:00:31.489Z,88.45
2022-09-01T08:01:31.033Z,88.35
2022-09-01T08:02:30.982Z,88.85
2022-09-01T08:03:30.944Z,86.93
2022-09-01T08:04:30.914Z,85.72
2022-09-01T08:05:30.895Z,85.62
2022-09-01T08:06:38.034Z,83.40
2022-09-01T08:07:31.920Z,86.13
2022-09-01T08:08:31.078Z,84.81
2022-09-01T08:09:37.055Z,86.33
2022-09-01T08:10:31.863Z,85.42
2022-09-01T08:12:31.961Z,87.60
2022-09-01T08:13:30.848Z,87.81
2022-09-01T08:14:33.779Z,87.40
2022-09-01T08:15:41.219Z,85.88
2022-09-01T08:16:39.262Z,83.86
2022-09-01T08:17:51.119Z,84.97
2022-09-01T08:18:48.222Z,85.88
2022-09-01T08:19:31.754Z,83.66
2022-09-01T08:20:30.752Z,83.96
2022-09-01T08:21:30.771Z,81.84
2022-09-01T08:22:30.787Z,83.92
2022-09-01T08:23:30.724Z,82.81
2022-09-01T08:24:30.700Z,84.12
2022-09-01T08:25:30.680Z,84.93
2022-09-01T08:26:30.670Z,85.64
2022-09-01T08:27:30.692Z,84.33
2022-09-01T08:28:30.965Z,87.26
2022-09-01T08:29:30.731Z,84.73
2022-09-01T08:30:30.669Z,84.33
2022-09-01T08:31:31.221Z,85.34
2022-09-01T08:32:30.672Z,84.43
2022-09-01T08:33:30.604Z,83.62
2022-09-01T08:34:30.611Z,83.22
2022-09-01T08:35:31.098Z,79.99
2022-09-01T08:36:30.564Z,80.99
2022-09-01T08:37:30.585Z,79.38
2022-09-01T08:38:30.637Z,80.39
2022-09-01T08:39:30.533Z,78.37
2022-09-01T08:40:30.621Z,77.22
2022-09-01T08:41:35.054Z,79.44
2022-09-01T08:42:33.054Z,78.03
2022-09-01T08:43:30.566Z,79.85
2022-09-01T08:44:30.726Z,76.72
2022-09-01T08:45:30.543Z,78.13
2022-09-01T08:46:30.557Z,78.53
2022-09-01T08:47:43.764Z,80.01
2022-09-01T08:49:42.333Z,78.53
2022-09-01T08:50:31.433Z,80.21
2022-09-01T08:51:30.576Z,81.12
2022-09-01T08:52:30.394Z,80.51
2022-09-01T08:53:32.748Z,83.24
2022-09-01T08:54:31.955Z,80.41
2022-09-01T08:55:30.351Z,80.21
2022-09-01T08:56:30.348Z,81.52
2022-09-01T08:57:30.418Z,80.41
2022-09-01T08:58:30.981Z,81.12
2022-09-01T08:59:30.351Z,78.70
2022-09-01T09:00:30.429Z,79.87
2022-09-01T09:01:30.577Z,81.38
2022-09-01T09:02:30.343Z,80.78
2022-09-01T09:03:40.589Z,79.27
2022-09-01T09:04:31.310Z,77.35
2022-09-01T09:05:31.104Z,80.47
2022-09-01T09:06:30.249Z,78.26
2022-09-01T09:07:30.248Z,79.06
2022-09-01T09:08:33.240Z,78.66
2022-09-01T09:09:34.052Z,80.68
2022-09-01T09:10:30.279Z,78.16
2022-09-01T09:11:30.189Z,75.74
2022-09-01T09:12:30.228Z,77.66
2022-09-01T09:13:30.168Z,79.97
2022-09-01T09:14:30.157Z,77.92
2022-09-01T09:15:30.440Z,77.42
2022-09-01T09:16:30.171Z,76.81
2022-09-01T09:17:30.187Z,78.12
2022-09-01T09:18:38.805Z,80.84
2022-09-01T09:19:31.131Z,76.40
2022-09-01T09:20:30.111Z,77.42
2022-09-01T09:21:30.413Z,76.51
2022-09-01T09:22:30.083Z,75.50
2022-09-01T09:23:30.074Z,76.81
2022-09-01T09:24:38.673Z,80.64
2022-09-01T09:25:31.032Z,79.33
2022-09-01T09:26:42.215Z,74.29
2022-09-01T09:27:31.007Z,78.42
2022-09-01T09:28:30.001Z,80.04
2022-09-01T09:29:30.054Z,79.13
2022-09-01T09:30:30.002Z,75.10
2022-09-01T09:31:30.059Z,77.42
2022-09-01T09:32:50.405Z,76.71
2022-09-01T09:33:49.828Z,79.23
2022-09-01T09:34:30.969Z,83.06
2022-09-01T09:35:30.042Z,80.44
2022-09-01T09:36:29.998Z,76.51
2022-09-01T09:37:29.918Z,75.60
2022-09-01T09:38:29.904Z,76.81
2022-09-01T09:39:29.984Z,78.32
2022-09-01T09:40:29.938Z,77.42
2022-09-01T09:41:30.065Z,75.60
2022-09-01T09:42:34.709Z,78.39
2022-09-01T09:43:30.871Z,80.40
2022-09-01T09:44:29.891Z,78.89
2022-09-01T09:45:29.822Z,77.38
2022-09-01T09:46:29.900Z,79.60
2022-09-01T09:47:43.114Z,77.17
2022-09-01T09:48:30.793Z,75.87
2022-09-01T09:49:35.167Z,77.48
2022-09-01T09:50:30.761Z,76.57
2022-09-01T09:51:29.751Z,78.92
2022-09-01T09:52:30.066Z,79.83
2022-09-01T09:53:29.739Z,78.92
2022-09-01T09:54:29.726Z,78.83
2022-09-01T09:55:29.731Z,81.10
2022-09-01T09:56:29.748Z,81.65
2022-09-01T09:57:29.742Z,81.04
2022-09-01T09:58:29.716Z,79.69
2022-09-01T09:59:56.690Z,76.47
2022-09-01T10:00:30.669Z,76.77
2022-09-01T10:01:29.822Z,75.87
2022-09-01T10:02:29.637Z,81.27
2022-09-01T10:03:29.626Z,79.86
2022-09-01T10:04:29.655Z,76.94
2022-09-01T10:05:30.116Z,73.61
2022-09-01T10:06:29.638Z,72.97
2022-09-01T10:07:29.609Z,75.90
2022-09-01T10:08:29.564Z,74.49
2022-09-01T10:09:29.561Z,75.49
2022-09-01T10:10:29.570Z,78.71
2022-09-01T10:11:35.407Z,78.01
2022-09-01T10:12:30.557Z,75.70
2022-09-01T10:13:31.443Z,78.11
2022-09-01T10:14:47.953Z,77.61
2022-09-01T10:15:30.511Z,76.90
2022-09-01T10:16:32.055Z,73.08
2022-09-01T10:17:29.528Z,77.00
2022-09-01T10:18:29.739Z,74.99
2022-09-01T10:19:35.121Z,79.28
2022-09-01T10:20:30.442Z,77.67
2022-09-01T10:21:29.494Z,77.91
2022-09-01T10:22:29.429Z,75.79
2022-09-01T10:23:30.949Z,73.14
2022-09-01T10:24:30.742Z,75.76
2022-09-01T10:25:29.612Z,79.58
2022-09-01T10:26:29.405Z,80.08
2022-09-01T10:27:29.379Z,78.27
2022-09-01T10:28:29.355Z,79.28
2022-09-01T10:29:34.796Z,71.43
2022-09-01T10:30:30.463Z,73.85
2022-09-01T10:31:32.720Z,75.35
2022-09-01T10:32:36.973Z,72.14
2022-09-01T10:33:30.336Z,70.32
2022-09-01T10:34:29.438Z,73.71
2022-09-01T10:35:29.272Z,73.81
2022-09-01T10:36:29.296Z,72.10
2022-09-01T10:37:29.255Z,74.62
2022-09-01T10:38:29.324Z,74.72
2022-09-01T10:39:31.134Z,71.94
2022-09-01T10:40:31.458Z,71.53
2022-09-01T10:41:29.266Z,73.75
2022-09-01T10:42:29.241Z,71.30
2022-09-01T10:43:30.033Z,72.71
2022-09-01T10:44:31.306Z,72.91
2022-09-01T10:45:29.167Z,74.32
2022-09-01T10:46:38.806Z,73.00
2022-09-01T10:47:30.431Z,72.71
2022-09-01T10:48:31.089Z,72.20
2022-09-01T10:49:29.645Z,72.20
2022-09-01T10:50:29.992Z,74.92
2022-09-01T10:51:36.305Z,74.08
2022-09-01T10:52:30.115Z,73.47
2022-09-01T10:53:29.079Z,76.59
2022-09-01T10:54:30.089Z,71.77
2022-09-01T10:55:29.049Z,70.66
2022-09-01T10:56:35.522Z,73.47
2022-09-01T10:57:30.603Z,69.25
2022-09-01T10:59:32.662Z,74.24
2022-09-01T11:00:37.479Z,73.14
2022-09-01T11:01:47.729Z,72.64
2022-09-01T11:02:35.859Z,68.92
2022-09-01T11:03:30.475Z,70.23
2022-09-01T11:04:29.027Z,71.23
2022-09-01T11:05:33.253Z,67.31
2022-09-01T11:06:33.231Z,73.84
2022-09-01T11:07:50.266Z,72.64
2022-09-01T11:08:30.185Z,69.62
2022-09-01T11:09:28.953Z,73.04
2022-09-01T11:10:33.800Z,69.12
2022-09-01T11:11:29.929Z,69.62
2022-09-01T11:12:29.986Z,69.52
2022-09-01T11:13:28.853Z,72.84
2022-09-01T11:14:28.854Z,72.74
2022-09-01T11:15:28.872Z,72.71
2022-09-01T11:17:29.863Z,71.53
2022-09-01T11:18:29.219Z,70.03
2022-09-01T11:19:28.818Z,72.03
2022-09-01T11:20:28.779Z,73.84
2022-09-01T11:21:28.800Z,73.04
2022-09-01T11:22:28.782Z,72.94
2022-09-01T11:23:28.761Z,73.34
2022-09-01T11:24:28.730Z,71.30
2022-09-01T11:25:38.785Z,74.81
2022-09-01T11:26:29.719Z,80.63
2022-09-01T11:27:28.697Z,69.99
2022-09-01T11:28:28.689Z,70.70
2022-09-01T11:29:28.711Z,79.13
2022-09-01T11:30:28.759Z,69.09
2022-09-01T11:31:28.723Z,74.81
2022-09-01T11:32:28.668Z,78.29
2022-09-01T11:33:28.657Z,70.50
2022-09-01T11:34:28.982Z,69.26
2022-09-01T11:35:28.737Z,67.95
2022-09-01T11:36:28.636Z,67.25
2022-09-01T11:37:28.601Z,74.88
2022-09-01T11:38:28.609Z,74.98
2022-09-01T11:39:28.565Z,72.77
2022-09-01T11:40:29.644Z,69.35
2022-09-01T11:41:28.595Z,65.64
2022-09-01T11:42:28.550Z,63.64
2022-09-01T11:43:28.523Z,70.26
2022-09-01T11:44:28.515Z,65.14
2022-09-01T11:45:28.595Z,66.55
2022-09-01T11:46:28.489Z,69.62
2022-09-01T11:47:28.517Z,69.32
2022-09-01T11:48:28.465Z,67.11
2022-09-01T11:49:28.455Z,73.54
2022-09-01T11:50:28.456Z,67.52
2022-09-01T11:51:28.437Z,70.63
2022-09-01T11:52:28.464Z,67.72
2022-09-01T11:53:28.414Z,68.72
2022-09-01T11:54:28.399Z,76.04
2022-09-01T11:55:28.475Z,72.33
2022-09-01T11:56:28.378Z,68.32
2022-09-01T11:57:28.411Z,73.13
2022-09-01T11:58:28.369Z,67.42
2022-09-01T11:59:28.350Z,70.73
2022-09-01T12:00:28.327Z,73.33
2022-09-01T12:01:28.327Z,70.59
2022-09-01T12:02:28.431Z,68.99
2022-09-01T12:03:28.404Z,65.18
2022-09-01T12:04:28.291Z,65.38
2022-09-01T12:05:28.291Z,74.71
2022-09-01T12:06:28.258Z,72.30
2022-09-01T12:07:28.342Z,67.58
2022-09-01T12:08:28.258Z,69.29
2022-09-01T12:09:28.246Z,63.47
2022-09-01T12:10:28.240Z,71.70
2022-09-01T12:11:28.220Z,64.28
2022-09-01T12:12:28.246Z,64.48
2022-09-01T12:13:28.192Z,62.47
2022-09-01T12:14:38.933Z,69.39
2022-09-01T12:15:29.187Z,62.47
2022-09-01T12:16:28.213Z,68.79
2022-09-01T12:17:28.193Z,72.70
2022-09-01T12:18:28.132Z,60.06
2022-09-01T12:19:28.135Z,61.17
2022-09-01T12:20:29.499Z,68.49
2022-09-01T12:21:28.113Z,70.56
2022-09-01T12:22:28.094Z,75.77
2022-09-01T12:23:28.128Z,64.48
2022-09-01T12:24:28.063Z,66.99
2022-09-01T12:25:28.054Z,72.09
2022-09-01T12:26:28.046Z,62.47
2022-09-01T12:27:28.039Z,70.59
2022-09-01T12:28:30.575Z,63.95
2022-09-01T12:29:31.991Z,73.36
2022-09-01T12:30:28.021Z,69.86
2022-09-01T12:31:28.115Z,74.77
2022-09-01T12:32:27.976Z,76.17
2022-09-01T12:33:28.051Z,66.65
2022-09-01T12:34:27.959Z,67.35
2022-09-01T12:35:27.952Z,66.75
2022-09-01T12:36:27.954Z,62.64
2022-09-01T12:37:27.937Z,77.08
2022-09-01T12:38:27.916Z,70.56
2022-09-01T12:39:27.958Z,69.26
2022-09-01T12:40:27.958Z,74.97
2022-09-01T12:41:29.003Z,74.47
2022-09-01T12:42:27.898Z,69.06
2022-09-01T12:43:27.861Z,61.94
2022-09-01T12:44:30.211Z,66.85
2022-09-01T12:45:28.486Z,63.14
2022-09-01T12:46:27.833Z,68.96
2022-09-01T12:47:27.843Z,69.76
2022-09-01T12:48:27.799Z,68.05
2022-09-01T12:49:28.867Z,64.88
2022-09-01T12:50:29.710Z,69.59
2022-09-01T12:51:31.423Z,70.89
2022-09-01T12:52:27.784Z,67.88
2022-09-01T12:53:27.916Z,68.49
2022-09-01T12:54:27.735Z,65.55
2022-09-01T12:56:28.804Z,71.77
2022-09-01T12:57:27.726Z,67.35
2022-09-01T12:58:27.712Z,69.23
2022-09-01T12:59:37.394Z,72.03
2022-09-01T13:00:28.688Z,65.92
2022-09-01T13:01:27.771Z,60.91
2022-09-01T13:02:27.802Z,75.13
2022-09-01T13:03:27.717Z,72.53
2022-09-01T13:04:27.637Z,65.31
2022-09-01T13:05:31.864Z,72.63
2022-09-01T13:06:28.645Z,67.62
2022-09-01T13:07:27.597Z,69.23
2022-09-01T13:08:27.610Z,67.72
2022-09-01T13:09:27.579Z,65.01
2022-09-01T13:10:27.571Z,69.02
2022-09-01T13:12:05.717Z,68.82
2022-09-01T13:12:28.590Z,67.82
2022-09-01T13:13:27.620Z,72.03